createdAt,value
2023-04-07T00:01:11.029Z,100.00
2023-04-07T00:03:45.634Z,100.00
2023-04-07T00:06:14.756Z,100.00
2023-04-07T00:08:42.384Z,100.00
2023-04-07T00:11:10.027Z,100.00
2023-04-07T00:13:38.441Z,100.00
2023-04-07T00:16:06.599Z,100.00
2023-04-07T00:18:34.339Z,100.00
2023-04-07T00:21:02.157Z,100.00
2023-04-07T00:23:31.762Z,100.00
2023-04-07T00:25:59.403Z,100.00
2023-04-07T00:28:27.066Z,100.00
2023-04-07T00:30:54.741Z,100.00
2023-04-07T00:33:22.384Z,100.00
2023-04-07T00:35:50.074Z,100.00
2023-04-07T00:38:17.733Z,100.00
2023-04-07T00:40:46.748Z,100.00
2023-04-07T00:43:14.646Z,100.00
2023-04-07T00:45:42.448Z,100.00
2023-04-07T00:48:11.358Z,100.00
2023-04-07T00:50:39.244Z,100.00
2023-04-07T00:53:07.818Z,100.00
2023-04-07T00:55:35.674Z,100.00
2023-04-07T00:58:05.609Z,100.00
2023-04-07T01:00:37.140Z,100.00
2023-04-07T01:03:10.506Z,100.00
2023-04-07T01:05:45.880Z,100.00
2023-04-07T01:08:17.434Z,100.00
2023-04-07T01:10:53.030Z,100.00
2023-04-07T01:13:29.539Z,100.00
2023-04-07T01:16:12.419Z,100.00
2023-04-07T01:18:49.029Z,100.00
2023-04-07T01:21:19.326Z,100.00
2023-04-07T01:24:06.473Z,100.00
2023-04-07T01:26:34.744Z,100.00
2023-04-07T01:29:20.900Z,100.00
2023-04-07T01:31:51.052Z,100.00
2023-04-07T01:34:20.683Z,100.00
2023-04-07T01:36:50.826Z,100.00
2023-04-07T01:39:19.662Z,100.00
2023-04-07T01:41:48.130Z,100.00
2023-04-07T01:44:16.399Z,100.00
2023-04-07T01:46:45.582Z,100.00
2023-04-07T01:49:14.419Z,100.00
2023-04-07T01:51:43.341Z,100.00
2023-04-07T01:54:11.100Z,100.00
2023-04-07T01:56:38.740Z,100.00
2023-04-07T01:59:07.721Z,100.00
2023-04-07T02:01:35.934Z,100.00
2023-04-07T02:04:13.745Z,100.00
2023-04-07T02:06:45.602Z,100.00
2023-04-07T02:09:17.697Z,100.00
2023-04-07T02:11:46.068Z,100.00
2023-04-07T02:14:15.544Z,100.00
2023-04-07T02:16:56.919Z,100.00
2023-04-07T02:19:27.385Z,100.00
2023-04-07T02:21:56.023Z,100.00
2023-04-07T02:24:23.657Z,100.00
2023-04-07T02:26:51.606Z,100.00
2023-04-07T02:29:19.316Z,100.00
2023-04-07T02:31:47.036Z,100.00
2023-04-07T02:34:14.878Z,100.00
2023-04-07T02:36:43.966Z,100.00
2023-04-07T02:39:11.674Z,100.00
2023-04-07T02:41:39.360Z,100.00
2023-04-07T02:44:06.992Z,100.00
2023-04-07T02:46:35.053Z,100.00
2023-04-07T02:49:02.808Z,100.00
2023-04-07T02:51:31.347Z,100.00
2023-04-07T02:54:00.448Z,100.00
2023-04-07T02:56:28.146Z,100.00
2023-04-07T02:58:55.793Z,100.00
2023-04-07T03:01:23.736Z,100.00
2023-04-07T03:03:51.745Z,100.00
2023-04-07T03:06:24.088Z,100.00
2023-04-07T03:09:13.441Z,100.00
2023-04-07T03:11:41.678Z,100.00
2023-04-07T03:14:09.893Z,100.00
2023-04-07T03:16:45.065Z,100.00
2023-04-07T03:19:14.551Z,100.00
2023-04-07T03:21:45.685Z,100.00
2023-04-07T03:24:14.990Z,100.00
2023-04-07T03:26:42.711Z,100.00
2023-04-07T03:29:29.603Z,100.00
2023-04-07T03:31:57.382Z,100.00
2023-04-07T03:34:26.242Z,100.00
2023-04-07T03:36:53.850Z,100.00
2023-04-07T03:39:23.204Z,100.00
2023-04-07T03:41:56.154Z,100.00
2023-04-07T03:44:24.443Z,100.00
2023-04-07T03:46:53.696Z,100.00
2023-04-07T03:49:23.762Z,100.00
2023-04-07T03:51:52.514Z,100.00
2023-04-07T03:54:21.002Z,100.00
2023-04-07T03:56:50.012Z,100.00
2023-04-07T03:59:22.377Z,100.00
2023-04-07T04:02:03.448Z,100.00
2023-04-07T04:04:31.562Z,100.00
2023-04-07T04:06:59.898Z,100.00
2023-04-07T04:09:39.947Z,100.00
2023-04-07T04:12:09.336Z,100.00
2023-04-07T04:14:44.437Z,100.00
2023-04-07T04:17:14.522Z,100.00
2023-04-07T04:19:46.159Z,100.00
2023-04-07T04:22:28.131Z,100.00
2023-04-07T04:24:58.691Z,100.00
2023-04-07T04:27:29.629Z,100.00
2023-04-07T04:30:08.163Z,100.00
2023-04-07T04:32:40.782Z,100.00
2023-04-07T04:35:10.293Z,100.00
2023-04-07T04:37:47.038Z,100.00
2023-04-07T04:40:15.986Z,100.00
2023-04-07T04:42:48.821Z,100.00
2023-04-07T04:45:17.354Z,100.00
2023-04-07T04:47:48.086Z,100.00
2023-04-07T04:50:17.407Z,100.00
2023-04-07T04:52:47.267Z,100.00
2023-04-07T04:55:21.374Z,100.00
2023-04-07T04:57:51.182Z,100.00
2023-04-07T05:00:25.424Z,100.00
2023-04-07T05:02:59.334Z,100.00
2023-04-07T05:05:27.697Z,100.00
2023-04-07T05:07:56.615Z,100.00
2023-04-07T05:10:26.868Z,100.00
2023-04-07T05:12:57.069Z,100.00
2023-04-07T05:15:24.730Z,100.00
2023-04-07T05:17:52.434Z,100.00
2023-04-07T05:20:25.015Z,100.00
2023-04-07T05:22:53.008Z,100.00
2023-04-07T05:25:24.389Z,100.00
2023-04-07T05:27:59.784Z,100.00
2023-04-07T05:30:27.416Z,100.00
2023-04-07T05:32:56.358Z,100.00
2023-04-07T05:35:36.371Z,100.00
2023-04-07T05:38:04.265Z,100.00
2023-04-07T05:40:32.682Z,100.00
2023-04-07T05:43:05.222Z,100.00
2023-04-07T05:45:34.714Z,100.00
2023-04-07T05:48:02.491Z,100.00
2023-04-07T05:50:39.618Z,100.00
2023-04-07T05:53:11.748Z,100.00
2023-04-07T05:55:39.401Z,100.00
2023-04-07T05:58:11.423Z,100.00
2023-04-07T06:00:42.027Z,100.00
2023-04-07T06:03:15.132Z,100.00
2023-04-07T06:05:53.223Z,100.00
2023-04-07T06:08:22.525Z,100.00
2023-04-07T06:10:50.463Z,100.00
2023-04-07T06:13:19.425Z,100.00
2023-04-07T06:15:47.237Z,100.00
2023-04-07T06:18:14.872Z,100.00
2023-04-07T06:20:42.476Z,100.00
2023-04-07T06:23:10.209Z,100.00
2023-04-07T06:25:37.807Z,100.00
2023-04-07T06:28:05.563Z,100.00
2023-04-07T06:30:35.377Z,100.00
2023-04-07T06:33:09.446Z,100.00
2023-04-07T06:35:37.121Z,100.00
2023-04-07T06:38:04.841Z,100.00
2023-04-07T06:40:33.488Z,100.00
2023-04-07T06:43:01.240Z,100.00
2023-04-07T06:46:01.111Z,100.00
2023-04-07T06:48:28.867Z,100.00
2023-04-07T06:50:56.488Z,100.00
2023-04-07T06:53:24.104Z,100.00
2023-04-07T06:55:51.764Z,100.00
2023-04-07T06:58:19.773Z,100.00
2023-04-07T07:00:47.427Z,100.00
2023-04-07T07:03:16.695Z,100.00
2023-04-07T07:05:44.448Z,100.00
2023-04-07T07:08:12.651Z,100.00
2023-04-07T07:10:40.262Z,100.00
2023-04-07T07:13:07.864Z,100.00
2023-04-07T07:15:35.806Z,100.00
2023-04-07T07:18:03.877Z,100.00
2023-04-07T07:20:32.973Z,100.00
2023-04-07T07:23:00.778Z,100.00
2023-04-07T07:25:28.986Z,100.00
2023-04-07T07:27:56.634Z,100.00
2023-04-07T07:30:24.942Z,100.00
2023-04-07T07:32:54.481Z,100.00
2023-04-07T07:35:23.147Z,100.00
2023-04-07T07:37:53.255Z,100.00
2023-04-07T07:40:21.425Z,100.00
2023-04-07T07:42:49.079Z,100.00
2023-04-07T07:45:19.408Z,100.00
2023-04-07T07:47:47.303Z,100.00
2023-04-07T07:50:15.044Z,100.00
2023-04-07T07:52:43.268Z,100.00
2023-04-07T07:55:12.265Z,100.00
2023-04-07T07:57:39.898Z,100.00
2023-04-07T08:00:08.760Z,99.67
2023-04-07T08:02:42.436Z,92.48
2023-04-07T08:05:11.321Z,100.00
2023-04-07T08:07:39.050Z,99.66
2023-04-07T08:10:07.721Z,96.90
2023-04-07T08:12:37.094Z,94.11
2023-04-07T08:15:05.328Z,92.83
2023-04-07T08:17:33.144Z,93.83
2023-04-07T08:20:02.044Z,96.62
2023-04-07T08:22:29.746Z,93.90
2023-04-07T08:24:57.430Z,100.00
2023-04-07T08:27:25.197Z,100.00
2023-04-07T08:30:02.047Z,100.00
2023-04-07T08:32:36.134Z,96.92
2023-04-07T08:35:03.989Z,94.09
2023-04-07T08:37:31.880Z,91.52
2023-04-07T08:39:59.489Z,97.21
2023-04-07T08:42:29.737Z,97.65
2023-04-07T08:45:00.250Z,100.00
2023-04-07T08:47:32.945Z,100.00
2023-04-07T08:50:03.744Z,100.00
2023-04-07T08:52:35.297Z,100.00
2023-04-07T08:55:06.678Z,100.00
2023-04-07T08:57:35.172Z,100.00
2023-04-07T09:00:05.682Z,100.00
2023-04-07T09:02:36.380Z,97.16
2023-04-07T09:05:06.314Z,96.02
2023-04-07T09:07:35.696Z,95.35
2023-04-07T09:10:03.663Z,100.00
2023-04-07T09:12:32.469Z,97.75
2023-04-07T09:15:00.226Z,95.57
2023-04-07T09:17:28.764Z,96.75
2023-04-07T09:19:59.777Z,98.63
2023-04-07T09:22:38.096Z,96.19
2023-04-07T09:25:16.687Z,94.22
2023-04-07T09:27:55.982Z,91.17
2023-04-07T09:30:24.183Z,87.66
2023-04-07T09:32:52.160Z,88.57
2023-04-07T09:35:23.825Z,90.98
2023-04-07T09:38:03.595Z,92.07
2023-04-07T09:40:32.319Z,97.09
2023-04-07T09:43:00.293Z,96.73
2023-04-07T09:47:59.868Z,83.72
2023-04-07T09:50:36.864Z,90.30
2023-04-07T09:53:04.774Z,84.06
2023-04-07T09:55:33.723Z,89.10
2023-04-07T09:58:02.553Z,83.12
2023-04-07T10:00:30.655Z,79.99
2023-04-07T10:02:58.772Z,83.42
2023-04-07T10:05:26.896Z,78.94
2023-04-07T10:07:56.340Z,87.20
2023-04-07T10:10:24.016Z,80.24
2023-04-07T10:12:55.074Z,76.60
2023-04-07T10:15:23.364Z,74.82
2023-04-07T10:17:52.100Z,80.86
2023-04-07T10:20:21.491Z,79.93
2023-04-07T10:22:51.326Z,78.31
2023-04-07T10:25:23.444Z,73.79
2023-04-07T10:27:54.387Z,74.22
2023-04-07T10:30:26.245Z,77.57
2023-04-07T10:32:55.440Z,78.74
2023-04-07T10:35:24.946Z,78.00
2023-04-07T10:38:13.733Z,84.71
2023-04-07T10:40:43.828Z,87.79
2023-04-07T10:43:12.233Z,90.17
2023-04-07T10:45:59.424Z,91.96
2023-04-07T10:48:32.810Z,95.50
2023-04-07T10:51:17.838Z,97.51
2023-04-07T10:54:20.928Z,100.00
2023-04-07T10:57:10.502Z,100.00
2023-04-07T10:59:40.077Z,100.00
2023-04-07T11:02:35.955Z,100.00
2023-04-07T11:05:04.329Z,96.43
2023-04-07T11:07:45.992Z,100.00
2023-04-07T11:10:15.974Z,95.66
2023-04-07T11:12:45.449Z,95.02
2023-04-07T11:15:21.885Z,97.11
2023-04-07T11:18:07.365Z,94.81
2023-04-07T11:20:43.825Z,93.82
2023-04-07T11:23:13.511Z,87.67
2023-04-07T11:25:43.948Z,87.15
2023-04-07T11:28:14.190Z,87.54
2023-04-07T11:30:47.229Z,85.30
2023-04-07T11:33:19.638Z,86.31
2023-04-07T11:35:56.660Z,82.55
2023-04-07T11:38:27.264Z,75.94
2023-04-07T11:40:55.868Z,73.30
2023-04-07T11:43:26.048Z,73.60
2023-04-07T11:46:07.610Z,72.97
2023-04-07T11:48:37.084Z,72.41
2023-04-07T11:51:06.061Z,75.75
2023-04-07T11:53:37.845Z,86.54
2023-04-07T11:56:09.450Z,94.06
2023-04-07T11:58:38.826Z,97.95
2023-04-07T12:01:08.904Z,92.46
2023-04-07T12:03:37.978Z,89.80
2023-04-07T12:06:07.076Z,91.18
2023-04-07T12:08:42.445Z,92.65
2023-04-07T12:11:10.599Z,90.34
2023-04-07T12:13:39.780Z,92.23
2023-04-07T12:16:07.711Z,93.76
2023-04-07T12:18:35.391Z,85.62
2023-04-07T12:21:03.112Z,83.45
2023-04-07T12:23:30.833Z,81.90
2023-04-07T12:25:58.470Z,87.72
2023-04-07T12:28:26.194Z,85.51
2023-04-07T12:30:55.198Z,84.56
2023-04-07T12:33:22.938Z,83.16
2023-04-07T12:35:50.646Z,88.47
2023-04-07T12:38:18.417Z,84.78
2023-04-07T12:40:46.311Z,88.68
2023-04-07T12:43:13.944Z,94.42
2023-04-07T12:45:41.694Z,97.47
2023-04-07T12:48:10.912Z,95.96
2023-04-07T12:50:38.643Z,97.51
2023-04-07T12:53:06.308Z,100.00
2023-04-07T12:55:35.581Z,100.00
2023-04-07T12:58:03.369Z,100.00
2023-04-07T13:00:31.438Z,100.00
2023-04-07T13:02:59.307Z,100.00
2023-04-07T13:05:29.794Z,100.00
2023-04-07T13:07:57.458Z,100.00
2023-04-07T13:10:25.359Z,100.00
2023-04-07T13:12:53.204Z,100.00
2023-04-07T13:15:20.906Z,100.00
2023-04-07T13:17:48.573Z,100.00
2023-04-07T13:20:19.888Z,100.00
2023-04-07T13:23:02.737Z,100.00
2023-04-07T13:25:35.100Z,100.00
2023-04-07T13:28:02.747Z,100.00
2023-04-07T13:30:30.505Z,100.00
2023-04-07T13:32:58.483Z,100.00
2023-04-07T13:35:26.599Z,100.00
2023-04-07T13:37:55.583Z,100.00
2023-04-07T13:40:23.352Z,100.00
2023-04-07T13:42:51.058Z,100.00
2023-04-07T13:45:18.909Z,100.00
2023-04-07T13:47:46.980Z,100.00
2023-04-07T13:50:14.721Z,95.76
2023-04-07T13:52:42.470Z,96.60
2023-04-07T13:55:11.783Z,94.63
2023-04-07T13:57:39.404Z,91.54
2023-04-07T14:00:08.562Z,86.63
2023-04-07T14:02:36.797Z,81.67
2023-04-07T14:05:04.702Z,81.81
2023-04-07T14:07:32.397Z,85.78
2023-04-07T14:10:00.057Z,78.18
2023-04-07T14:12:29.045Z,78.27
2023-04-07T14:14:57.020Z,77.10
2023-04-07T14:17:25.020Z,72.79
2023-04-07T14:19:52.651Z,71.95
2023-04-07T14:22:20.860Z,72.17
2023-04-07T14:24:48.856Z,79.17
2023-04-07T14:27:20.693Z,77.24
2023-04-07T14:29:49.765Z,79.95
2023-04-07T14:32:17.517Z,77.43
2023-04-07T14:34:45.160Z,81.46
2023-04-07T14:37:14.003Z,87.42
2023-04-07T14:39:48.557Z,86.22
2023-04-07T14:42:23.394Z,83.56
2023-04-07T14:44:53.089Z,83.75
2023-04-07T14:47:20.951Z,83.22
2023-04-07T14:49:49.640Z,76.89
2023-04-07T14:52:19.432Z,82.65
2023-04-07T14:54:47.234Z,83.29
2023-04-07T14:57:14.909Z,84.20
2023-04-07T14:59:42.607Z,86.80
2023-04-07T15:02:11.725Z,85.70
2023-04-07T15:04:39.663Z,89.88
2023-04-07T15:07:07.528Z,85.78
2023-04-07T15:09:35.202Z,85.40
2023-04-07T15:12:02.864Z,87.77
2023-04-07T15:14:30.562Z,89.33
2023-04-07T15:16:58.206Z,91.55
2023-04-07T15:19:27.248Z,92.89
2023-04-07T15:21:54.872Z,91.26
2023-04-07T15:24:22.541Z,95.77
2023-04-07T15:26:50.272Z,98.44
2023-04-07T15:29:17.856Z,100.00
2023-04-07T15:31:45.703Z,100.00
2023-04-07T15:34:13.959Z,100.00
2023-04-07T15:36:42.940Z,100.00
2023-04-07T15:39:10.561Z,100.00
2023-04-07T15:41:39.108Z,100.00
2023-04-07T15:44:07.087Z,100.00
2023-04-07T15:46:34.764Z,100.00
2023-04-07T15:49:02.535Z,100.00
2023-04-07T15:51:30.983Z,100.00
2023-04-07T15:54:00.829Z,100.00
2023-04-07T15:56:28.438Z,99.51
2023-04-07T15:58:56.046Z,98.91
2023-04-07T16:01:24.594Z,96.25
2023-04-07T16:03:52.451Z,94.78
2023-04-07T16:06:20.544Z,96.04
2023-04-07T16:08:48.176Z,96.03
2023-04-07T16:11:17.269Z,94.90
2023-04-07T16:13:44.982Z,97.98
2023-04-07T16:16:12.730Z,97.64
2023-04-07T16:18:40.433Z,96.25
2023-04-07T16:21:08.533Z,97.83
2023-04-07T16:23:36.238Z,98.95
2023-04-07T16:26:04.377Z,99.21
2023-04-07T16:28:33.580Z,99.57
2023-04-07T16:31:02.433Z,100.00
2023-04-07T16:33:30.353Z,100.00
2023-04-07T16:35:58.044Z,100.00
2023-04-07T16:38:28.941Z,100.00
2023-04-07T16:41:03.790Z,100.00
2023-04-07T16:43:33.289Z,100.00
2023-04-07T16:46:01.081Z,100.00
2023-04-07T16:48:29.611Z,100.00
2023-04-07T16:50:57.480Z,100.00
2023-04-07T16:53:26.330Z,100.00
2023-04-07T16:55:53.957Z,100.00
2023-04-07T16:58:21.656Z,100.00
2023-04-07T17:00:51.220Z,100.00
2023-04-07T17:03:19.610Z,100.00
2023-04-07T17:05:48.269Z,100.00
2023-04-07T17:08:16.013Z,100.00
2023-04-07T17:10:43.662Z,100.00
2023-04-07T17:13:11.301Z,100.00
2023-04-07T17:15:39.027Z,100.00
2023-04-07T17:18:08.060Z,100.00
2023-04-07T17:20:35.761Z,100.00
2023-04-07T17:23:03.392Z,100.00
2023-04-07T17:25:31.465Z,100.00
2023-04-07T17:27:59.144Z,100.00
2023-04-07T17:30:27.003Z,100.00
2023-04-07T17:32:54.723Z,100.00
2023-04-07T17:35:24.997Z,100.00
2023-04-07T17:37:52.977Z,100.00
2023-04-07T17:40:20.857Z,100.00
2023-04-07T17:42:48.589Z,100.00
2023-04-07T17:45:17.648Z,100.00
2023-04-07T17:47:46.149Z,100.00
2023-04-07T17:50:14.465Z,100.00
2023-04-07T17:52:43.583Z,100.00
2023-04-07T17:55:12.368Z,100.00
2023-04-07T17:57:40.497Z,100.00
2023-04-07T18:00:09.418Z,100.00
2023-04-07T18:02:42.945Z,100.00
2023-04-07T18:05:11.213Z,100.00
2023-04-07T18:07:39.061Z,100.00
2023-04-07T18:10:10.015Z,100.00
2023-04-07T18:12:37.678Z,100.00
2023-04-07T18:15:05.841Z,100.00
2023-04-07T18:17:33.778Z,100.00
2023-04-07T18:20:02.110Z,100.00
2023-04-07T18:22:29.789Z,100.00
2023-04-07T18:24:57.457Z,100.00
2023-04-07T18:27:28.269Z,100.00
2023-04-07T18:29:56.297Z,100.00
2023-04-07T18:32:23.989Z,100.00
2023-04-07T18:34:53.548Z,100.00
2023-04-07T18:37:21.615Z,100.00
2023-04-07T18:39:49.589Z,100.00
2023-04-07T18:42:17.341Z,100.00
2023-04-07T18:44:46.392Z,100.00
2023-04-07T18:47:14.215Z,100.00
2023-04-07T18:49:42.027Z,100.00
2023-04-07T18:52:09.948Z,100.00
2023-04-07T18:54:37.677Z,100.00
2023-04-07T18:57:05.309Z,100.00
2023-04-07T18:59:33.033Z,100.00
2023-04-07T19:02:02.107Z,100.00
2023-04-07T19:04:29.838Z,100.00
2023-04-07T19:06:57.575Z,100.00
2023-04-07T19:09:25.822Z,100.00
2023-04-07T19:11:53.630Z,100.00
2023-04-07T19:14:21.357Z,100.00
2023-04-07T19:16:49.142Z,100.00
2023-04-07T19:19:18.102Z,100.00
2023-04-07T19:21:45.810Z,100.00
2023-04-07T19:24:13.623Z,100.00
2023-04-07T19:26:42.279Z,100.00
2023-04-07T19:29:11.548Z,100.00
2023-04-07T19:31:39.535Z,100.00
2023-04-07T19:34:07.222Z,100.00
2023-04-07T19:36:36.421Z,100.00
2023-04-07T19:39:05.243Z,100.00
2023-04-07T19:41:33.050Z,100.00
2023-04-07T19:44:01.078Z,100.00
2023-04-07T19:46:28.967Z,100.00
2023-04-07T19:48:57.096Z,100.00
2023-04-07T19:51:24.796Z,100.00
2023-04-07T19:53:53.827Z,100.00
2023-04-07T19:56:21.458Z,100.00
2023-04-07T19:58:49.282Z,100.00
2023-04-07T20:01:17.970Z,100.00
2023-04-07T20:03:46.641Z,100.00
2023-04-07T20:06:15.193Z,100.00
2023-04-07T20:08:43.264Z,100.00
2023-04-07T20:11:13.347Z,100.00
2023-04-07T20:13:42.322Z,100.00
2023-04-07T20:16:10.735Z,100.00
2023-04-07T20:18:38.522Z,100.00
2023-04-07T20:21:06.813Z,100.00
2023-04-07T20:23:34.698Z,100.00
2023-04-07T20:26:02.593Z,100.00
2023-04-07T20:28:31.730Z,100.00
2023-04-07T20:31:00.052Z,100.00
2023-04-07T20:33:28.040Z,100.00
2023-04-07T20:35:55.836Z,100.00
2023-04-07T20:38:23.508Z,100.00
2023-04-07T20:40:51.174Z,100.00
2023-04-07T20:43:21.775Z,100.00
2023-04-07T20:45:52.068Z,100.00
2023-04-07T20:48:23.626Z,100.00
2023-04-07T20:50:51.905Z,100.00
2023-04-07T20:53:19.633Z,100.00
2023-04-07T20:55:47.975Z,100.00
2023-04-07T20:58:17.856Z,100.00
2023-04-07T21:00:45.870Z,100.00
2023-04-07T21:03:15.209Z,100.00
2023-04-07T21:05:43.412Z,100.00
2023-04-07T21:08:12.383Z,100.00
2023-04-07T21:10:41.627Z,100.00
2023-04-07T21:13:09.273Z,100.00
2023-04-07T21:15:37.657Z,100.00
2023-04-07T21:18:05.446Z,100.00
2023-04-07T21:20:36.680Z,100.00
2023-04-07T21:23:04.871Z,100.00
2023-04-07T21:25:32.541Z,100.00
2023-04-07T21:28:00.211Z,100.00
2023-04-07T21:30:27.840Z,100.00
2023-04-07T21:32:55.756Z,100.00
2023-04-07T21:35:23.480Z,100.00
2023-04-07T21:37:52.429Z,100.00
2023-04-07T21:40:20.861Z,100.00
2023-04-07T21:42:48.520Z,100.00
2023-04-07T21:45:17.367Z,100.00
2023-04-07T21:47:45.043Z,100.00
2023-04-07T21:50:13.467Z,100.00
2023-04-07T21:52:42.325Z,100.00
2023-04-07T21:55:11.704Z,100.00
2023-04-07T21:57:39.463Z,100.00
2023-04-07T22:00:08.924Z,100.00
2023-04-07T22:02:42.720Z,100.00
2023-04-07T22:05:10.919Z,100.00
2023-04-07T22:07:38.903Z,100.00
2023-04-07T22:10:07.953Z,100.00
2023-04-07T22:12:37.000Z,100.00
2023-04-07T22:15:05.723Z,100.00
2023-04-07T22:17:33.452Z,100.00
2023-04-07T22:20:01.189Z,100.00
2023-04-07T22:22:28.796Z,100.00
2023-04-07T22:24:56.449Z,100.00
2023-04-07T22:27:24.291Z,100.00
2023-04-07T22:29:53.279Z,100.00
2023-04-07T22:32:21.063Z,100.00
2023-04-07T22:34:48.738Z,100.00
2023-04-07T22:37:16.518Z,100.00
2023-04-07T22:39:46.158Z,100.00
2023-04-07T22:42:13.756Z,100.00
2023-04-07T22:44:41.391Z,100.00
2023-04-07T22:47:10.574Z,100.00
2023-04-07T22:49:38.186Z,100.00
2023-04-07T22:52:06.181Z,100.00
2023-04-07T22:54:33.845Z,100.00
2023-04-07T22:57:02.354Z,100.00
2023-04-07T22:59:30.048Z,100.00
2023-04-07T23:01:57.906Z,100.00
2023-04-07T23:04:27.205Z,100.00
2023-04-07T23:06:54.918Z,100.00
2023-04-07T23:09:23.021Z,100.00
2023-04-07T23:11:50.750Z,100.00
2023-04-07T23:14:18.437Z,100.00
2023-04-07T23:16:46.064Z,100.00
2023-04-07T23:19:15.825Z,100.00
2023-04-07T23:21:44.923Z,100.00
2023-04-07T23:24:12.550Z,100.00
2023-04-07T23:26:40.375Z,100.00
2023-04-07T23:29:08.015Z,100.00
2023-04-07T23:31:35.759Z,100.00
2023-04-07T23:34:05.303Z,100.00
2023-04-07T23:36:33.462Z,100.00
2023-04-07T23:39:02.937Z,100.00
2023-04-07T23:41:30.560Z,100.00
2023-04-07T23:43:58.181Z,100.00
2023-04-07T23:46:25.893Z,100.00
2023-04-07T23:48:53.750Z,100.00
2023-04-07T23:51:22.580Z,100.00
2023-04-07T23:53:50.248Z,100.00
2023-04-07T23:56:19.229Z,100.00
2023-04-07T23:58:46.993Z,100.00
